Time;durP1;ratioP1;P1;durP2;ratioP2;P2;SDS_P1;SDS_P2;PMS_P1;PMS_P2;Temp;Humidity;BMP_temperature;BMP_pressure;BME280_temperature;BME280_humidity;BME280_pressure;Samples;Min_cycle;Max_cycle;Signal;HPM_P1;HPM_P2
2021/10/25 00:01:07;;;;;;;3.75;2.83;;;14.00;77.00;;;;;;5134495;27;20131;-58
2021/10/25 00:03:33;;;;;;;3.70;2.78;;;14.00;77.00;;;;;;5134532;27;20810;-58
2021/10/25 00:05:59;;;;;;;3.67;2.72;;;14.00;77.00;;;;;;5134744;27;20118;-58
2021/10/25 00:08:24;;;;;;;3.00;2.70;;;14.00;77.00;;;;;;5134119;27;20403;-58
2021/10/25 00:10:50;;;;;;;2.88;2.60;;;14.00;77.00;;;;;;5134402;27;20046;-57
2021/10/25 00:13:16;;;;;;;3.30;2.60;;;14.00;77.00;;;;;;5116062;27;20050;-59
2021/10/25 00:15:42;;;;;;;3.72;2.90;;;14.00;77.00;;;;;;5134381;27;20038;-57
2021/10/25 00:18:08;;;;;;;2.75;2.40;;;14.00;77.00;;;;;;5134487;27;20127;-58
2021/10/25 00:20:34;;;;;;;2.65;2.45;;;13.90;76.90;;;;;;5133784;27;20380;-56
2021/10/25 00:23:00;;;;;;;3.33;2.60;;;14.00;77.00;;;;;;5115301;27;20051;-58
2021/10/25 00:25:26;;;;;;;2.88;2.58;;;14.00;77.00;;;;;;5134709;27;20042;-59
2021/10/25 00:27:51;;;;;;;2.53;2.33;;;14.00;77.00;;;;;;5134214;27;20039;-57
2021/10/25 00:30:17;;;;;;;2.75;2.25;;;14.00;77.00;;;;;;5134116;27;20074;-58
2021/10/25 00:32:43;;;;;;;3.13;2.28;;;14.00;77.00;;;;;;5134271;27;20041;-58
2021/10/25 00:35:09;;;;;;;2.65;2.45;;;13.90;77.00;;;;;;5133449;27;20075;-56
2021/10/25 00:37:35;;;;;;;3.13;2.78;;;14.00;77.00;;;;;;5134437;27;20100;-59
2021/10/25 00:40:00;;;;;;;3.03;2.40;;;13.90;77.00;;;;;;5133708;27;20070;-59
2021/10/25 00:42:26;;;;;;;2.85;2.42;;;13.90;77.00;;;;;;5134046;27;20070;-59
2021/10/25 00:44:52;;;;;;;2.95;2.30;;;13.90;77.00;;;;;;5134058;27;20043;-58
2021/10/25 00:47:18;;;;;;;2.95;2.42;;;14.00;77.00;;;;;;5133920;27;20042;-59
2021/10/25 00:49:44;;;;;;;3.58;2.70;;;13.90;77.00;;;;;;5134095;27;20402;-58
2021/10/25 00:52:10;;;;;;;2.80;2.47;;;13.90;77.00;;;;;;5133288;27;20445;-59
2021/10/25 00:54:35;;;;;;;2.90;2.50;;;13.90;77.00;;;;;;5134048;27;20071;-59
2021/10/25 00:57:03;;;;;;;2.72;2.42;;;13.90;77.00;;;;;;5133735;27;20097;-58
2021/10/25 00:59:31;;;;;;;3.85;2.60;;;13.90;77.00;;;;;;5133992;27;20039;-60
2021/10/25 01:01:58;;;;;;;3.40;2.58;;;13.90;77.00;;;;;;5133645;27;20058;-60
2021/10/25 01:04:23;;;;;;;2.58;2.38;;;13.90;77.00;;;;;;5133748;27;20058;-59
2021/10/25 01:06:49;;;;;;;3.60;2.85;;;13.90;77.00;;;;;;5133359;27;20039;-59
2021/10/25 01:09:17;;;;;;;3.50;2.58;;;13.80;77.00;;;;;;5114994;27;20086;-59
2021/10/25 01:11:44;;;;;;;3.00;2.70;;;13.90;77.00;;;;;;5133359;27;20039;-59
2021/10/25 01:14:10;;;;;;;3.00;2.55;;;13.90;77.00;;;;;;5132916;27;20047;-59
2021/10/25 01:16:36;;;;;;;3.33;2.72;;;13.90;77.00;;;;;;5133926;28;20091;-60
2021/10/25 01:19:03;;;;;;;2.88;2.55;;;13.90;77.00;;;;;;5133489;28;20436;-57
2021/10/25 01:21:29;;;;;;;3.22;2.53;;;13.90;77.00;;;;;;5133124;28;20063;-58
2021/10/25 01:23:55;;;;;;;4.32;2.90;;;13.90;77.00;;;;;;5114161;28;20423;-59
2021/10/25 01:26:22;;;;;;;2.83;2.58;;;13.90;77.00;;;;;;5115483;28;20047;-57
2021/10/25 01:28:53;;;;;;;2.90;2.60;;;13.90;77.00;;;;;;5133323;28;20525;-59
2021/10/25 01:31:20;;;;;;;3.03;2.50;;;13.90;77.00;;;;;;5133914;28;20046;-59
2021/10/25 01:33:48;;;;;;;2.55;2.35;;;13.90;77.00;;;;;;5133258;28;20051;-59
2021/10/25 01:36:15;;;;;;;4.20;2.45;;;13.90;77.00;;;;;;5133346;28;20047;-57
2021/10/25 01:38:41;;;;;;;2.90;2.60;;;13.90;77.00;;;;;;5133091;28;20509;-59
2021/10/25 01:41:07;;;;;;;2.80;2.53;;;13.80;77.00;;;;;;5133082;28;20114;-58
2021/10/25 01:43:34;;;;;;;3.28;2.47;;;13.90;77.00;;;;;;5133371;28;20035;-58
2021/10/25 01:46:00;;;;;;;4.15;3.00;;;13.90;77.00;;;;;;5115119;28;20051;-59
2021/10/25 01:48:26;;;;;;;3.45;2.70;;;13.90;77.00;;;;;;5133426;28;20092;-59
2021/10/25 01:50:51;;;;;;;4.07;2.88;;;13.90;77.00;;;;;;5133468;28;20050;-58
2021/10/25 01:53:17;;;;;;;3.38;3.08;;;13.90;77.00;;;;;;5133401;28;20043;-59
2021/10/25 01:55:43;;;;;;;2.80;2.60;;;13.90;77.00;;;;;;5132466;27;20075;-59
2021/10/25 01:58:09;;;;;;;4.25;2.70;;;13.90;77.00;;;;;;5135940;27;20398;-58
2021/10/25 02:00:35;;;;;;;3.30;2.80;;;13.90;77.00;;;;;;5137136;27;20048;-59
2021/10/25 02:03:01;;;;;;;2.70;2.45;;;13.90;77.00;;;;;;5137087;27;20514;-58
2021/10/25 02:05:26;;;;;;;3.53;3.10;;;13.90;77.00;;;;;;5136769;27;20038;-57
2021/10/25 02:07:52;;;;;;;3.15;2.40;;;13.90;77.00;;;;;;5137503;27;20463;-59
2021/10/25 02:10:18;;;;;;;3.05;2.75;;;13.90;77.00;;;;;;5136754;27;20120;-58
2021/10/25 02:12:44;;;;;;;3.03;2.72;;;13.90;77.10;;;;;;5136525;27;20035;-57
2021/10/25 02:15:10;;;;;;;3.53;2.78;;;13.90;77.10;;;;;;5118559;27;20118;-58
2021/10/25 02:17:36;;;;;;;3.03;2.70;;;13.90;77.10;;;;;;5136660;27;20436;-57
2021/10/25 02:20:03;;;;;;;3.10;2.80;;;13.90;77.10;;;;;;5136527;27;20466;-58
2021/10/25 02:22:29;;;;;;;2.83;2.60;;;13.90;77.10;;;;;;5136879;27;20050;-59
2021/10/25 02:24:56;;;;;;;3.08;2.65;;;13.80;77.00;;;;;;5137192;27;20043;-60
2021/10/25 02:27:23;;;;;;;2.92;2.63;;;13.80;77.00;;;;;;5136225;27;20158;-59
2021/10/25 02:29:49;;;;;;;3.20;2.80;;;13.80;77.00;;;;;;5136982;27;20126;-58
2021/10/25 02:32:16;;;;;;;3.55;2.90;;;13.80;77.00;;;;;;5136424;27;20114;-51
2021/10/25 02:34:45;;;;;;;3.00;2.70;;;13.80;77.00;;;;;;5136579;27;20035;-59
2021/10/25 02:37:13;;;;;;;3.30;2.80;;;13.90;77.10;;;;;;5136163;27;20042;-59
2021/10/25 02:39:39;;;;;;;3.38;2.90;;;13.80;77.00;;;;;;5136627;27;20035;-58
2021/10/25 02:42:05;;;;;;;2.75;2.45;;;13.80;77.00;;;;;;5135461;27;20535;-55
2021/10/25 02:44:30;;;;;;;3.08;2.75;;;13.80;77.10;;;;;;5136611;27;20085;-60
2021/10/25 02:46:57;;;;;;;3.90;2.63;;;13.80;77.00;;;;;;5136474;27;20095;-58
2021/10/25 02:49:23;;;;;;;3.05;2.75;;;13.80;77.00;;;;;;5152271;27;20110;-59
2021/10/25 02:51:49;;;;;;;2.97;2.67;;;13.80;77.00;;;;;;5136199;27;20042;-60
2021/10/25 02:54:15;;;;;;;3.25;2.85;;;13.80;77.10;;;;;;5136604;27;20043;-58
2021/10/25 02:56:41;;;;;;;4.25;3.05;;;13.80;77.10;;;;;;5136259;27;20043;-59
2021/10/25 02:59:09;;;;;;;3.78;2.92;;;13.80;77.10;;;;;;5135056;27;20051;-59
2021/10/25 03:01:36;;;;;;;3.10;2.80;;;13.80;77.10;;;;;;5135599;27;20050;-59
2021/10/25 03:04:06;;;;;;;3.35;2.28;;;13.80;77.10;;;;;;5136225;27;20035;-59
2021/10/25 03:06:34;;;;;;;3.05;2.67;;;13.80;77.10;;;;;;5151676;27;20471;-58
2021/10/25 03:08:59;;;;;;;3.78;2.92;;;13.80;77.10;;;;;;5134876;27;20047;-59
2021/10/25 03:11:25;;;;;;;3.65;2.85;;;13.80;77.10;;;;;;5135993;27;20141;-59
2021/10/25 03:13:53;;;;;;;2.95;2.58;;;13.80;77.10;;;;;;5134956;27;20163;-59
2021/10/25 03:16:20;;;;;;;3.42;2.78;;;13.80;77.10;;;;;;5135653;27;20046;-59
2021/10/25 03:18:46;;;;;;;3.28;2.85;;;13.80;77.10;;;;;;5135873;27;20126;-59
2021/10/25 03:21:12;;;;;;;3.08;2.78;;;13.70;77.00;;;;;;5135742;27;20058;-58
2021/10/25 03:23:39;;;;;;;3.25;2.80;;;13.80;77.10;;;;;;5135578;27;20039;-58
2021/10/25 03:26:05;;;;;;;3.15;2.72;;;13.80;77.00;;;;;;5135058;27;20051;-59
2021/10/25 03:28:31;;;;;;;3.03;2.53;;;13.80;77.10;;;;;;5135504;27;20039;-60
2021/10/25 03:30:57;;;;;;;3.00;2.65;;;13.80;77.10;;;;;;5116618;27;20544;-59
2021/10/25 03:33:23;;;;;;;3.55;2.92;;;13.80;77.10;;;;;;5135428;27;20035;-59
2021/10/25 03:35:49;;;;;;;3.20;2.83;;;13.80;77.10;;;;;;5127002;27;20035;-59
2021/10/25 03:38:16;;;;;;;4.10;3.03;;;13.80;77.10;;;;;;5135716;27;20036;-59
2021/10/25 03:40:45;;;;;;;3.30;3.00;;;13.90;77.20;;;;;;5116119;27;20082;-58
2021/10/25 03:43:12;;;;;;;4.60;2.88;;;13.80;77.10;;;;;;5134886;27;20050;-57
2021/10/25 03:45:43;;;;;;;3.55;2.85;;;13.80;77.10;;;;;;5134866;27;20506;-59
2021/10/25 03:48:19;;;;;;;2.97;2.60;;;13.80;77.10;;;;;;5134767;27;20110;-58
2021/10/25 03:50:47;;;;;;;3.17;2.67;;;13.80;77.10;;;;;;5135231;27;20155;-58
2021/10/25 03:53:21;;;;;;;3.10;2.80;;;13.80;77.10;;;;;;5116269;27;20053;-57
2021/10/25 04:04:20;;;;;;;2.78;2.40;;;13.70;77.00;;;;;;5134017;27;20043;-57
2021/10/25 04:25:51;;;;;;;3.72;2.80;;;13.80;77.20;;;;;;5134336;27;20051;-56
2021/10/25 04:28:20;;;;;;;3.15;2.80;;;13.70;77.10;;;;;;5134092;27;20051;-58
2021/10/25 04:30:53;;;;;;;3.58;3.05;;;13.80;77.20;;;;;;5134200;27;20039;-58
2021/10/25 04:33:19;;;;;;;4.30;3.05;;;13.80;77.20;;;;;;5133643;27;20437;-57
2021/10/25 04:35:45;;;;;;;3.17;2.83;;;13.70;77.20;;;;;;5134260;27;20088;-59
2021/10/25 04:38:10;;;;;;;3.60;2.60;;;13.70;77.10;;;;;;5133656;27;20043;-57
2021/10/25 04:40:36;;;;;;;4.20;2.97;;;13.80;77.20;;;;;;5134271;27;20043;-59
2021/10/25 04:43:02;;;;;;;4.07;3.10;;;13.70;77.10;;;;;;5133951;27;20077;-57
2021/10/25 04:45:28;;;;;;;3.80;3.03;;;13.70;77.10;;;;;;5134367;27;20047;-59
2021/10/25 04:47:54;;;;;;;3.65;3.03;;;13.70;77.10;;;;;;5133855;27;20053;-59
2021/10/25 04:50:21;;;;;;;3.22;2.92;;;13.70;77.10;;;;;;5115384;27;20046;-59
2021/10/25 04:52:47;;;;;;;3.20;2.72;;;13.80;77.20;;;;;;5133930;27;20044;-59
2021/10/25 04:55:13;;;;;;;3.45;2.92;;;13.80;77.20;;;;;;5133991;27;20116;-56
2021/10/25 04:57:42;;;;;;;3.63;2.80;;;13.70;77.10;;;;;;5134005;27;20039;-58
2021/10/25 05:00:08;;;;;;;3.15;2.85;;;13.70;77.10;;;;;;5134194;27;20039;-57
2021/10/25 05:02:34;;;;;;;3.33;2.72;;;13.80;77.20;;;;;;5114739;27;20043;-53
2021/10/25 05:05:01;;;;;;;3.05;2.75;;;13.70;77.10;;;;;;5133368;27;20050;-60
2021/10/25 05:07:27;;;;;;;3.97;3.10;;;13.70;77.10;;;;;;5134271;27;20035;-59
2021/10/25 05:09:52;;;;;;;3.30;2.90;;;13.70;77.10;;;;;;5115220;27;20058;-59
2021/10/25 05:12:18;;;;;;;2.95;2.65;;;13.80;77.20;;;;;;5133250;27;20042;-58
2021/10/25 05:14:44;;;;;;;3.67;2.95;;;13.80;77.20;;;;;;5114729;27;20110;-57
2021/10/25 05:17:10;;;;;;;3.13;2.83;;;13.70;77.10;;;;;;5134006;27;20039;-58
2021/10/25 05:19:36;;;;;;;3.40;2.90;;;13.70;77.20;;;;;;5133282;28;20035;-57
2021/10/25 05:22:02;;;;;;;3.40;2.70;;;13.70;77.10;;;;;;5133088;28;20055;-59
2021/10/25 05:24:28;;;;;;;3.08;2.70;;;13.70;77.10;;;;;;5133301;28;20085;-59
2021/10/25 05:26:54;;;;;;;4.30;2.80;;;13.70;77.10;;;;;;5132982;28;20621;-59
2021/10/25 05:29:19;;;;;;;2.95;2.58;;;13.70;77.10;;;;;;5133959;28;20083;-59
2021/10/25 05:31:47;;;;;;;3.38;2.83;;;13.70;77.10;;;;;;5136234;27;20039;-58
2021/10/25 05:34:12;;;;;;;3.33;2.88;;;13.70;77.10;;;;;;5118738;27;20073;-59
2021/10/25 05:36:38;;;;;;;3.13;2.80;;;13.70;77.10;;;;;;5136679;27;20042;-59
2021/10/25 05:39:08;;;;;;;3.22;2.80;;;13.70;77.10;;;;;;5137952;27;20038;-59
2021/10/25 05:41:35;;;;;;;3.75;3.35;;;13.70;77.20;;;;;;5119192;27;20479;-57
2021/10/25 05:44:01;;;;;;;3.20;2.80;;;13.80;77.20;;;;;;5136995;27;20039;-56
2021/10/25 05:46:26;;;;;;;3.05;2.75;;;13.70;77.20;;;;;;5118687;27;20043;-59
2021/10/25 05:48:54;;;;;;;3.20;2.90;;;13.70;77.10;;;;;;5118172;27;20047;-57
2021/10/25 05:51:20;;;;;;;3.33;2.95;;;13.70;77.10;;;;;;5137297;27;20043;-59
2021/10/25 05:53:46;;;;;;;3.30;2.75;;;13.70;77.10;;;;;;5118552;27;20374;-59
2021/10/25 05:56:12;;;;;;;2.92;2.60;;;13.70;77.10;;;;;;5137228;27;20054;-58
2021/10/25 05:58:38;;;;;;;3.35;2.60;;;13.70;77.10;;;;;;5137209;27;20043;-58
2021/10/25 06:01:11;;;;;;;3.20;2.90;;;13.70;77.10;;;;;;5137286;27;20118;-58
2021/10/25 06:03:43;;;;;;;3.25;2.95;;;13.70;77.20;;;;;;5136759;27;20047;-58
2021/10/25 06:06:09;;;;;;;2.70;2.50;;;13.70;77.20;;;;;;5136969;27;20492;-59
2021/10/25 06:08:38;;;;;;;2.72;2.42;;;13.70;77.20;;;;;;5136327;27;20027;-60
2021/10/25 06:11:04;;;;;;;3.15;2.83;;;13.70;77.20;;;;;;5136769;27;20043;-59
2021/10/25 06:13:41;;;;;;;3.42;2.90;;;13.70;77.10;;;;;;5136953;27;20031;-59
2021/10/25 06:16:22;;;;;;;2.70;2.50;;;13.70;77.10;;;;;;5136914;27;20428;-59
2021/10/25 06:18:47;;;;;;;3.08;2.80;;;13.70;77.20;;;;;;5136560;27;20039;-58
2021/10/25 06:21:13;;;;;;;3.00;2.70;;;13.70;77.10;;;;;;5136077;27;20050;-58
2021/10/25 06:23:39;;;;;;;3.40;3.10;;;13.80;77.20;;;;;;5135166;27;20818;-60
2021/10/25 06:26:05;;;;;;;2.97;2.42;;;13.70;77.10;;;;;;5135882;27;20031;-58
2021/10/25 06:28:32;;;;;;;3.50;2.90;;;13.70;77.10;;;;;;5136727;27;20131;-57
2021/10/25 06:31:04;;;;;;;2.97;2.67;;;13.70;77.20;;;;;;5136032;27;20042;-58
2021/10/25 06:33:36;;;;;;;3.30;2.63;;;13.60;77.80;;;;;;5135929;27;20107;-58
2021/10/25 06:36:03;;;;;;;2.88;2.35;;;13.70;77.10;;;;;;5135345;27;20055;-59
2021/10/25 06:38:32;;;;;;;2.88;2.58;;;13.70;77.10;;;;;;5136770;27;20047;-59
2021/10/25 06:40:59;;;;;;;3.42;2.75;;;13.70;77.10;;;;;;5136079;27;20114;-58
2021/10/25 06:43:26;;;;;;;3.47;2.65;;;13.70;77.10;;;;;;5135154;27;20043;-59
2021/10/25 06:45:52;;;;;;;2.83;2.60;;;13.70;77.10;;;;;;5118331;27;20043;-59
2021/10/25 06:48:18;;;;;;;2.70;2.40;;;13.70;77.10;;;;;;5136193;27;20051;-57
2021/10/25 06:50:44;;;;;;;3.30;2.60;;;13.70;77.10;;;;;;5136090;27;20042;-59
2021/10/25 06:53:12;;;;;;;2.85;2.47;;;13.70;77.10;;;;;;5136298;27;20042;-58
2021/10/25 06:55:38;;;;;;;3.10;2.80;;;13.70;77.10;;;;;;5136040;27;20051;-59
2021/10/25 06:58:04;;;;;;;3.25;2.95;;;13.70;77.10;;;;;;5135746;27;20502;-60
2021/10/25 07:00:30;;;;;;;3.05;2.75;;;13.70;77.10;;;;;;5135929;27;20043;-59
2021/10/25 07:02:58;;;;;;;2.92;2.63;;;13.70;77.10;;;;;;5135700;27;20043;-58
2021/10/25 07:05:25;;;;;;;3.40;2.75;;;13.70;77.00;;;;;;5117098;27;20038;-59
2021/10/25 07:07:51;;;;;;;2.53;2.33;;;13.70;77.00;;;;;;5136097;27;20039;-59
2021/10/25 07:10:17;;;;;;;2.95;2.65;;;13.70;77.10;;;;;;5135569;27;20475;-58
2021/10/25 07:12:45;;;;;;;4.15;2.75;;;13.70;77.10;;;;;;5134653;27;20450;-59
2021/10/25 07:15:10;;;;;;;2.72;2.53;;;13.70;77.00;;;;;;5135632;27;20099;-59
2021/10/25 07:20:42;;;;;;;3.13;2.83;;;13.60;77.10;;;;;;5135882;27;20456;-57
2021/10/25 08:04:37;;;;;;;3.05;2.40;;;13.70;77.10;;;;;;5135014;27;20070;-57
2021/10/25 08:12:14;;;;;;;2.83;2.53;;;13.60;77.10;;;;;;5134775;27;20462;-58
2021/10/25 08:14:47;;;;;;;3.03;2.63;;;13.70;77.20;;;;;;5114958;27;20052;-58
2021/10/25 08:17:19;;;;;;;2.90;2.47;;;13.70;77.10;;;;;;5134471;27;20217;-59
2021/10/25 08:19:44;;;;;;;3.55;3.00;;;13.70;77.10;;;;;;5115731;27;20050;-57
2021/10/25 08:22:14;;;;;;;3.13;2.70;;;13.70;77.20;;;;;;5121510;27;20093;-54
2021/10/25 08:24:43;;;;;;;3.25;2.60;;;13.80;77.20;;;;;;5128635;27;20550;-56
2021/10/25 08:27:10;;;;;;;2.88;2.60;;;13.70;77.10;;;;;;5134348;27;20039;-56
2021/10/25 08:29:39;;;;;;;3.65;2.50;;;13.70;77.10;;;;;;5133039;27;20072;-57
2021/10/25 08:34:40;;;;;;;3.53;2.70;;;13.70;77.10;;;;;;5134399;27;20047;-56
2021/10/25 08:39:47;;;;;;;3.42;2.70;;;13.70;77.10;;;;;;5133960;27;20050;-55
2021/10/25 08:42:21;;;;;;;3.45;2.70;;;13.70;77.10;;;;;;5132977;27;20043;-58
2021/10/25 08:45:00;;;;;;;4.00;2.85;;;13.70;77.10;;;;;;5133005;27;20050;-58
2021/10/25 08:47:37;;;;;;;3.08;2.75;;;13.70;77.10;;;;;;5133573;27;20039;-58
2021/10/25 08:50:05;;;;;;;2.55;2.30;;;13.70;77.10;;;;;;5114365;27;20073;-57
2021/10/25 08:52:30;;;;;;;3.15;2.33;;;13.60;77.00;;;;;;5114659;27;20043;-57
2021/10/25 08:54:59;;;;;;;2.90;2.60;;;13.70;77.10;;;;;;5133991;27;20050;-57
2021/10/25 08:57:26;;;;;;;3.25;2.80;;;13.70;77.10;;;;;;5133454;27;20039;-56
2021/10/25 08:59:59;;;;;;;2.78;2.38;;;13.70;77.10;;;;;;5132659;27;20406;-59
2021/10/25 09:02:27;;;;;;;3.50;2.80;;;13.70;77.10;;;;;;5132912;27;20039;-57
2021/10/25 09:05:12;;;;;;;3.35;2.70;;;13.70;77.10;;;;;;5133664;27;20047;-59
2021/10/25 09:07:54;;;;;;;2.90;2.50;;;13.70;77.00;;;;;;5133384;27;20043;-57
2021/10/25 09:10:26;;;;;;;2.90;2.58;;;13.70;77.00;;;;;;5133535;27;20046;-56
2021/10/25 09:13:17;;;;;;;3.00;2.58;;;13.60;77.10;;;;;;5133784;27;20118;-56
2021/10/25 09:15:56;;;;;;;2.97;2.65;;;13.70;77.00;;;;;;5035522;28;20081;-56
2021/10/25 09:18:25;;;;;;;2.80;2.60;;;13.70;77.10;;;;;;5049363;28;20055;-55
2021/10/25 09:21:01;;;;;;;3.15;2.22;;;13.70;77.10;;;;;;5049638;28;20048;-56
2021/10/25 09:23:30;;;;;;;2.97;2.60;;;13.70;77.10;;;;;;5046692;28;20041;-59
2021/10/25 09:26:02;;;;;;;3.20;2.70;;;13.70;77.00;;;;;;5024627;28;20045;-58
2021/10/25 09:28:34;;;;;;;2.65;2.45;;;13.70;77.00;;;;;;5048585;28;20132;-59
2021/10/25 09:31:07;;;;;;;2.65;2.45;;;13.70;77.70;;;;;;5050154;28;20053;-59
2021/10/25 09:33:37;;;;;;;3.42;2.67;;;13.70;77.00;;;;;;5016164;28;20061;-59
2021/10/25 09:36:07;;;;;;;3.13;2.63;;;13.70;77.00;;;;;;5050197;28;20114;-59
2021/10/25 09:49:07;;;;;;;2.92;2.60;;;13.70;77.00;;;;;;5026206;28;20168;-55
2021/10/25 09:51:32;;;;;;;4.20;2.55;;;13.70;77.00;;;;;;5028935;28;20120;-58
2021/10/25 09:53:59;;;;;;;2.80;2.60;;;13.70;77.00;;;;;;5108773;28;20135;-57
2021/10/25 09:56:32;;;;;;;3.10;2.45;;;13.80;77.10;;;;;;5109077;28;20055;-58
2021/10/25 09:59:09;;;;;;;2.50;2.30;;;13.70;77.00;;;;;;5130053;27;20043;-58
2021/10/25 10:01:36;;;;;;;2.80;2.50;;;13.70;77.00;;;;;;5129360;28;20054;-57
2021/10/25 10:04:05;;;;;;;3.10;2.45;;;13.70;77.00;;;;;;5129215;28;20054;-57
2021/10/25 10:06:31;;;;;;;3.15;2.63;;;13.70;77.00;;;;;;5129147;28;20045;-59
2021/10/25 10:08:59;;;;;;;2.80;2.53;;;13.80;77.10;;;;;;5129138;28;20042;-57
2021/10/25 10:11:26;;;;;;;3.88;2.47;;;13.70;77.00;;;;;;5129399;28;20146;-58
2021/10/25 10:13:52;;;;;;;3.08;2.58;;;13.70;77.00;;;;;;5129444;28;20095;-60
2021/10/25 10:16:18;;;;;;;3.00;2.50;;;13.70;77.00;;;;;;5129760;28;20090;-58
2021/10/25 10:18:55;;;;;;;2.53;2.33;;;13.70;77.00;;;;;;5130849;27;20074;-58
2021/10/25 10:21:23;;;;;;;2.40;2.17;;;13.70;77.00;;;;;;5132606;27;20116;-58
2021/10/25 10:23:53;;;;;;;2.20;2.00;;;13.70;77.00;;;;;;5134400;27;20065;-59
2021/10/25 10:26:19;;;;;;;2.55;2.20;;;13.70;77.00;;;;;;5118241;27;20478;-57
2021/10/25 10:28:50;;;;;;;2.85;2.42;;;13.70;77.00;;;;;;5136330;27;20035;-57
2021/10/25 10:31:28;;;;;;;3.25;2.40;;;13.70;77.00;;;;;;5136997;27;20043;-59
2021/10/25 10:34:00;;;;;;;2.40;2.20;;;13.70;77.00;;;;;;5143398;27;20039;-56
2021/10/25 10:36:30;;;;;;;2.63;2.20;;;13.70;77.00;;;;;;5156604;27;20035;-56
2021/10/25 10:39:09;;;;;;;2.60;2.40;;;13.70;77.00;;;;;;5157557;27;20366;-59
2021/10/25 10:41:41;;;;;;;2.40;2.20;;;13.70;77.00;;;;;;5133388;27;20051;-58
2021/10/25 10:44:09;;;;;;;3.47;2.50;;;13.70;77.00;;;;;;5132481;27;20047;-57
2021/10/25 10:46:57;;;;;;;3.13;2.50;;;13.70;77.00;;;;;;5114210;27;20433;-59
2021/10/25 10:49:36;;;;;;;3.72;2.45;;;13.70;77.00;;;;;;5114332;27;20489;-58
2021/10/25 11:00:35;;;;;;;3.13;2.42;;;13.70;77.00;;;;;;5131551;27;20051;-55
2021/10/25 11:03:13;;;;;;;2.47;1.95;;;13.70;77.00;;;;;;5111817;28;20082;-58
2021/10/25 11:05:54;;;;;;;2.30;2.10;;;13.70;77.00;;;;;;5111916;28;20099;-56
2021/10/25 11:08:24;;;;;;;2.70;2.10;;;13.70;77.00;;;;;;5110174;28;20043;-56
2021/10/25 11:11:02;;;;;;;2.50;2.30;;;13.70;77.00;;;;;;5127643;27;20051;-56
2021/10/25 11:13:31;;;;;;;2.50;2.20;;;13.70;77.00;;;;;;5132135;27;20178;-57
2021/10/25 11:16:11;;;;;;;2.60;2.40;;;13.70;77.00;;;;;;5132428;27;20089;-54
2021/10/25 11:18:43;;;;;;;2.05;1.85;;;13.80;77.10;;;;;;5130907;27;20046;-56
2021/10/25 11:21:25;;;;;;;3.17;2.20;;;13.70;77.00;;;;;;5131932;27;20055;-57
2021/10/25 11:24:05;;;;;;;2.60;2.40;;;13.70;77.00;;;;;;5112359;27;20585;-58
2021/10/25 11:26:43;;;;;;;2.38;2.05;;;13.70;77.00;;;;;;5131815;27;20039;-59
2021/10/25 11:29:11;;;;;;;2.10;1.90;;;13.70;77.00;;;;;;5112240;27;20051;-58
2021/10/25 11:31:51;;;;;;;2.75;2.17;;;13.70;77.00;;;;;;5131688;27;20039;-55
2021/10/25 11:34:20;;;;;;;2.10;1.85;;;13.70;77.00;;;;;;5125255;27;20054;-58
2021/10/25 11:36:56;;;;;;;2.10;1.90;;;13.70;77.00;;;;;;5135782;27;20043;-55
2021/10/25 11:39:48;;;;;;;2.25;2.05;;;13.70;77.70;;;;;;5134995;27;20050;-53
2021/10/25 11:42:17;;;;;;;2.42;2.22;;;13.80;77.00;;;;;;5135514;27;20077;-56
2021/10/25 11:44:49;;;;;;;2.15;1.95;;;13.60;77.00;;;;;;5116872;27;20070;-57
2021/10/25 11:47:19;;;;;;;2.40;2.20;;;13.70;77.00;;;;;;5135055;27;20035;-56
2021/10/25 11:49:45;;;;;;;2.38;2.17;;;13.70;77.00;;;;;;5134343;27;20046;-57
2021/10/25 11:52:11;;;;;;;1.70;1.60;;;13.70;77.00;;;;;;5135222;27;20031;-56
2021/10/25 11:54:45;;;;;;;2.35;2.15;;;13.80;77.00;;;;;;5128942;27;20042;-49
2021/10/25 11:57:12;;;;;;;2.15;1.95;;;13.70;77.00;;;;;;5129749;27;20493;-54
2021/10/25 11:59:38;;;;;;;2.17;1.98;;;13.70;77.60;;;;;;5133122;27;20047;-54
2021/10/25 12:02:12;;;;;;;2.20;2.00;;;13.70;77.00;;;;;;5134816;27;20479;-57
2021/10/25 12:04:44;;;;;;;2.30;2.10;;;13.70;77.00;;;;;;5135052;27;20129;-58
2021/10/25 12:07:10;;;;;;;3.08;2.40;;;13.80;77.70;;;;;;5133958;27;20031;-57
2021/10/25 12:09:36;;;;;;;1.90;1.80;;;13.80;77.00;;;;;;5134160;27;20066;-58
2021/10/25 12:12:15;;;;;;;2.40;2.10;;;13.70;77.00;;;;;;5134347;27;20099;-56
2021/10/25 12:14:45;;;;;;;2.05;1.85;;;13.80;77.00;;;;;;5134732;27;20122;-57
2021/10/25 12:17:17;;;;;;;2.28;2.08;;;13.70;77.00;;;;;;5134718;27;20043;-56
2021/10/25 12:19:44;;;;;;;2.20;1.85;;;13.80;77.00;;;;;;5134480;27;20123;-57
2021/10/25 12:22:16;;;;;;;2.47;2.10;;;13.80;77.00;;;;;;5133939;27;20055;-56
2021/10/25 12:24:45;;;;;;;2.03;1.83;;;13.80;77.00;;;;;;5133741;27;20444;-56
2021/10/25 12:27:25;;;;;;;2.50;2.08;;;13.80;77.10;;;;;;5114058;27;20082;-56
2021/10/25 12:30:04;;;;;;;2.17;1.98;;;13.80;77.00;;;;;;5133829;27;20054;-57
2021/10/25 12:32:30;;;;;;;2.40;2.17;;;13.80;77.00;;;;;;5134019;27;20051;-54
2021/10/25 12:34:58;;;;;;;2.08;1.90;;;13.70;77.00;;;;;;5149692;27;20035;-58
2021/10/25 12:37:28;;;;;;;1.80;1.70;;;13.80;77.00;;;;;;5154842;27;20043;-57
2021/10/25 12:39:57;;;;;;;2.15;1.88;;;13.80;77.00;;;;;;5154610;27;20039;-59
2021/10/25 12:42:44;;;;;;;2.03;1.77;;;13.80;77.00;;;;;;5135502;27;20497;-56
2021/10/25 12:45:21;;;;;;;1.95;1.80;;;13.80;77.00;;;;;;5154417;27;20035;-57
2021/10/25 12:47:52;;;;;;;2.45;2.05;;;13.80;77.00;;;;;;5155020;27;20051;-59
2021/10/25 12:50:17;;;;;;;1.77;1.67;;;13.80;77.00;;;;;;5154766;27;20039;-55
2021/10/25 12:52:52;;;;;;;3.17;1.98;;;13.80;77.00;;;;;;5148304;27;20403;-57
2021/10/25 12:55:18;;;;;;;1.88;1.77;;;13.80;77.00;;;;;;5133978;27;20041;-57
2021/10/25 12:57:44;;;;;;;2.33;2.13;;;13.70;77.60;;;;;;5133510;27;20582;-57
2021/10/25 13:00:13;;;;;;;2.20;1.83;;;13.80;77.00;;;;;;5134209;27;20100;-57
2021/10/25 13:02:47;;;;;;;2.15;1.90;;;13.80;77.00;;;;;;5133671;27;20058;-57
2021/10/25 13:05:34;;;;;;;2.40;2.20;;;13.80;77.00;;;;;;5133980;27;20035;-58
2021/10/25 13:08:02;;;;;;;2.00;1.80;;;13.80;76.90;;;;;;5133728;27;20080;-56
2021/10/25 13:10:31;;;;;;;2.10;1.90;;;13.80;77.00;;;;;;5133466;27;20502;-57
2021/10/25 13:13:01;;;;;;;2.58;2.13;;;13.80;77.00;;;;;;5133387;27;20031;-57
2021/10/25 13:15:27;;;;;;;2.03;1.83;;;13.80;77.00;;;;;;5132155;27;20300;-56
2021/10/25 13:17:55;;;;;;;2.00;1.80;;;13.80;77.00;;;;;;5133761;27;20390;-56
2021/10/25 13:20:23;;;;;;;2.53;2.13;;;13.80;77.00;;;;;;5133168;27;20486;-57
2021/10/25 13:22:51;;;;;;;2.35;2.15;;;13.80;77.00;;;;;;5133486;28;20070;-57
2021/10/25 13:25:19;;;;;;;2.03;1.83;;;13.80;77.00;;;;;;5133579;28;20039;-58
2021/10/25 13:27:46;;;;;;;2.00;1.80;;;13.80;77.00;;;;;;5114946;28;20131;-56
2021/10/25 13:30:13;;;;;;;1.98;1.77;;;13.80;77.00;;;;;;5132971;28;20100;-58
2021/10/25 13:32:40;;;;;;;1.83;1.70;;;13.80;76.90;;;;;;5132990;28;20043;-57
2021/10/25 13:35:06;;;;;;;2.10;1.90;;;13.80;76.90;;;;;;5148624;27;20571;-56
2021/10/25 13:37:32;;;;;;;2.58;1.83;;;13.80;76.90;;;;;;5153261;27;20395;-57
2021/10/25 13:39:58;;;;;;;2.22;1.90;;;13.90;77.00;;;;;;5153655;27;20035;-56
2021/10/25 13:42:25;;;;;;;2.17;1.83;;;13.80;76.90;;;;;;5153880;27;20045;-57
2021/10/25 13:44:51;;;;;;;2.00;1.85;;;13.80;77.00;;;;;;5134873;27;20078;-58
2021/10/25 13:47:18;;;;;;;2.38;1.90;;;13.80;76.90;;;;;;5153668;27;20039;-57
2021/10/25 13:49:44;;;;;;;2.53;2.00;;;13.70;76.90;;;;;;5154056;27;20039;-60
2021/10/25 13:52:10;;;;;;;2.45;2.20;;;13.80;77.00;;;;;;5155750;27;20037;-59
2021/10/25 13:54:37;;;;;;;2.55;2.10;;;13.80;76.90;;;;;;5137950;27;20106;-57
2021/10/25 13:57:07;;;;;;;3.10;2.00;;;13.80;76.90;;;;;;5118694;27;20487;-56
2021/10/25 13:59:35;;;;;;;1.90;1.70;;;13.80;77.00;;;;;;5137142;27;20110;-57
2021/10/25 14:02:01;;;;;;;2.42;2.20;;;13.80;76.90;;;;;;5137071;27;20043;-56
2021/10/25 14:04:27;;;;;;;2.25;2.00;;;13.80;76.90;;;;;;5137397;27;20110;-52
2021/10/25 14:06:54;;;;;;;2.63;2.13;;;13.80;76.90;;;;;;5118780;27;20558;-57
2021/10/25 14:09:20;;;;;;;3.10;2.28;;;13.80;76.90;;;;;;5137263;27;20035;-56
2021/10/25 14:11:49;;;;;;;2.20;1.80;;;13.80;76.90;;;;;;5118004;27;20504;-58
2021/10/25 14:14:25;;;;;;;2.25;2.05;;;13.80;76.90;;;;;;5136032;27;20047;-57
2021/10/25 14:16:52;;;;;;;2.42;1.92;;;13.80;76.90;;;;;;5116718;27;20070;-59
2021/10/25 14:19:20;;;;;;;3.13;2.22;;;13.80;76.90;;;;;;5136520;27;20081;-58
2021/10/25 14:21:47;;;;;;;2.90;2.08;;;13.80;76.90;;;;;;5136633;27;20051;-58
2021/10/25 14:24:12;;;;;;;1.77;1.65;;;13.80;76.90;;;;;;5136341;27;20553;-56
2021/10/25 14:26:38;;;;;;;2.40;1.90;;;13.80;76.90;;;;;;5136560;27;20173;-59
2021/10/25 14:29:05;;;;;;;2.45;2.10;;;13.80;76.90;;;;;;5137017;27;20043;-57
2021/10/25 14:31:32;;;;;;;2.83;2.20;;;13.80;76.90;;;;;;5136658;27;20035;-59
2021/10/25 14:33:58;;;;;;;2.40;2.03;;;13.80;76.90;;;;;;5135463;27;20050;-58
2021/10/25 14:36:25;;;;;;;2.22;1.95;;;13.70;76.80;;;;;;5136197;27;20084;-58